Time;durP1;ratioP1;P1;durP2;ratioP2;P2;SDS_P1;SDS_P2;PMS_P1;PMS_P2;Temp;Humidity;BMP_temperature;BMP_pressure;BME280_temperature;BME280_humidity;BME280_pressure;Samples;Min_cycle;Max_cycle;Signal;HPM_P1;HPM_P2
2022/03/21 00:00:36;;;;;;;58.30;33.80;;;;;;;2.76;77.09;103019.41;5025739;28;20013;-56
2022/03/21 00:03:02;;;;;;;61.53;37.67;;;;;;;2.72;77.12;103016.66;5025482;28;20037;-59
2022/03/21 00:05:30;;;;;;;60.42;32.50;;;;;;;2.74;76.78;103022.81;5006827;28;20037;-55
2022/03/21 00:07:55;;;;;;;57.08;32.50;;;;;;;2.75;77.09;103022.88;5025379;28;20488;-58
2022/03/21 00:10:21;;;;;;;60.95;37.08;;;;;;;2.77;76.79;103023.78;5024337;28;20041;-56
2022/03/21 00:12:46;;;;;;;53.17;33.30;;;;;;;2.78;76.72;103029.88;5025603;28;20021;-58
2022/03/21 00:15:11;;;;;;;52.65;32.72;;;;;;;2.76;76.73;103024.63;5024683;28;20064;-58
2022/03/21 00:17:40;;;;;;;50.75;32.72;;;;;;;2.73;76.50;103026.22;5025839;28;20047;-56
2022/03/21 00:20:08;;;;;;;55.60;32.85;;;;;;;2.72;76.63;103033.19;5024677;28;20108;-58
2022/03/21 00:22:33;;;;;;;57.63;33.53;;;;;;;2.69;76.69;103037.38;5026086;28;20564;-57
2022/03/21 00:24:59;;;;;;;50.45;32.90;;;;;;;2.69;76.76;103034.78;5024418;28;20040;-58
2022/03/21 00:27:24;;;;;;;56.47;34.38;;;;;;;2.61;77.15;103032.78;5025621;28;20025;-57
2022/03/21 00:29:49;;;;;;;55.45;32.53;;;;;;;2.60;77.14;103030.13;5007549;28;20408;-57
2022/03/21 00:32:15;;;;;;;58.45;36.50;;;;;;;2.58;77.37;103031.78;5045602;28;20017;-58
2022/03/21 00:34:40;;;;;;;57.63;33.97;;;;;;;2.56;77.42;103030.88;5043960;28;20082;-57
2022/03/21 00:37:06;;;;;;;52.30;33.65;;;;;;;2.50;77.45;103029.81;5027527;28;20040;-57
2022/03/21 00:39:31;;;;;;;58.20;36.40;;;;;;;2.42;78.05;103026.06;5025389;28;20124;-57
2022/03/21 00:41:57;;;;;;;62.55;36.65;;;;;;;2.37;78.22;103028.50;5024958;28;20449;-57
2022/03/21 00:44:22;;;;;;;56.50;33.72;;;;;;;2.37;78.30;103030.19;5025059;28;20021;-55
2022/03/21 00:46:48;;;;;;;60.13;35.33;;;;;;;2.35;78.11;103022.34;5024142;28;20032;-56
2022/03/21 00:49:13;;;;;;;61.78;36.03;;;;;;;2.33;78.40;103026.63;5024026;28;20037;-57
2022/03/21 00:51:39;;;;;;;55.83;32.08;;;;;;;2.33;78.57;103020.50;5024065;28;20034;-58
2022/03/21 00:54:04;;;;;;;58.55;34.45;;;;;;;2.35;78.44;103029.28;5024670;28;20021;-56
2022/03/21 00:56:29;;;;;;;59.53;36.70;;;;;;;2.33;78.51;103033.53;5024100;28;20033;-56
2022/03/21 00:58:55;;;;;;;58.00;36.08;;;;;;;2.35;78.31;103029.28;5024134;28;20026;-56
2022/03/21 01:01:20;;;;;;;55.35;34.08;;;;;;;2.31;78.28;103027.38;5027352;28;20095;-57
2022/03/21 01:03:45;;;;;;;57.58;34.72;;;;;;;2.28;78.52;103025.56;5044512;28;20024;-56
2022/03/21 01:06:10;;;;;;;61.72;35.75;;;;;;;2.26;78.77;103022.91;5042488;28;20025;-56
2022/03/21 01:08:36;;;;;;;58.45;35.53;;;;;;;2.24;78.83;103027.19;5026127;28;20091;-56
2022/03/21 01:11:01;;;;;;;65.55;39.33;;;;;;;2.24;78.94;103021.97;5025214;28;20045;-58
2022/03/21 01:13:28;;;;;;;59.42;34.80;;;;;;;2.24;78.80;103029.78;5027404;28;20072;-56
2022/03/21 01:15:53;;;;;;;62.03;38.80;;;;;;;2.22;79.02;103027.94;5026805;28;20525;-57
2022/03/21 01:18:21;;;;;;;58.75;34.58;;;;;;;2.21;78.89;103028.75;5026252;28;20037;-57
2022/03/21 01:20:47;;;;;;;61.63;38.70;;;;;;;2.22;79.01;103028.81;5027270;28;20029;-56
2022/03/21 01:23:12;;;;;;;62.72;36.38;;;;;;;2.24;79.04;103036.69;5027022;28;20025;-57
2022/03/21 01:25:37;;;;;;;62.53;35.22;;;;;;;2.23;79.04;103033.19;5027498;28;20033;-57
2022/03/21 01:28:03;;;;;;;55.78;35.22;;;;;;;2.22;78.90;103036.63;5026700;28;20562;-58
2022/03/21 01:30:28;;;;;;;60.22;36.50;;;;;;;2.19;79.02;103038.22;5026721;28;20005;-58
2022/03/21 01:32:53;;;;;;;57.35;34.90;;;;;;;2.12;78.94;103038.00;5026026;28;20033;-58
2022/03/21 01:35:21;;;;;;;61.75;35.50;;;;;;;2.06;78.93;103036.88;5026963;28;20040;-56
2022/03/21 01:37:46;;;;;;;58.70;35.03;;;;;;;2.04;79.26;103046.38;5026331;28;20021;-56
2022/03/21 01:40:12;;;;;;;62.72;36.90;;;;;;;2.04;79.18;103043.75;5026996;28;20032;-56
2022/03/21 01:42:39;;;;;;;67.30;39.10;;;;;;;1.99;79.40;103046.19;5026288;28;20751;-56
2022/03/21 01:45:05;;;;;;;71.50;41.95;;;;;;;1.96;79.92;103044.34;5027893;28;20659;-55
2022/03/21 01:47:33;;;;;;;66.35;38.08;;;;;;;1.88;80.00;103044.06;5026192;28;20074;-57
2022/03/21 01:49:58;;;;;;;64.95;36.80;;;;;;;1.85;80.06;103048.25;5027149;28;20488;-57
2022/03/21 01:52:24;;;;;;;62.58;38.13;;;;;;;1.84;80.34;103046.50;5008129;28;20151;-58
2022/03/21 01:57:34;;;;;;;62.70;37.90;;;;;;;1.84;80.42;103043.88;5026385;28;20039;-57
2022/03/21 02:00:00;;;;;;;61.88;37.05;;;;;;;1.83;80.28;103045.59;5010076;28;20029;-57
2022/03/21 02:02:25;;;;;;;60.97;38.33;;;;;;;1.87;80.20;103041.41;4995338;23;1058533;-57
2022/03/21 02:04:50;;;;;;;70.30;40.38;;;;;;;1.84;80.42;103042.16;5047128;28;20044;-55
2022/03/21 02:07:17;;;;;;;62.17;36.70;;;;;;;1.83;80.19;103050.78;5047245;28;20528;-57
2022/03/21 02:09:42;;;;;;;61.13;38.83;;;;;;;1.85;80.36;103048.25;5047492;28;20032;-57
2022/03/21 02:12:08;;;;;;;66.55;40.33;;;;;;;1.88;80.39;103050.97;5047066;28;20025;-58
2022/03/21 02:14:39;;;;;;;67.00;38.35;;;;;;;1.93;80.17;103053.75;5047467;28;20079;-57
2022/03/21 02:17:04;;;;;;;63.05;37.15;;;;;;;1.93;79.90;103057.25;5047861;28;20029;-56
2022/03/21 02:19:31;;;;;;;67.28;38.08;;;;;;;1.92;79.99;103055.47;5016490;28;20072;-58
2022/03/21 02:22:16;;;;;;;64.03;36.72;;;;;;;1.88;79.83;103058.78;5027633;28;20118;-55
2022/03/21 02:24:47;;;;;;;60.15;34.80;;;;;;;1.81;80.17;103052.47;5038544;28;20040;-56
2022/03/21 02:27:13;;;;;;;58.80;35.17;;;;;;;1.76;80.10;103054.88;5047368;28;20033;-58
2022/03/21 02:29:40;;;;;;;61.45;35.35;;;;;;;1.74;80.37;103050.44;5036089;28;20033;-58
2022/03/21 02:32:06;;;;;;;62.83;36.67;;;;;;;1.76;80.27;103054.88;5027600;28;20104;-57
2022/03/21 02:34:36;;;;;;;59.17;35.88;;;;;;;1.75;80.50;103049.63;5030091;28;20033;-56
2022/03/21 02:37:02;;;;;;;62.80;36.33;;;;;;;1.73;80.42;103054.75;5045255;28;20025;-57
2022/03/21 02:39:28;;;;;;;56.20;33.50;;;;;;;1.67;80.23;103049.31;5046163;28;20036;-56
2022/03/21 02:41:54;;;;;;;57.33;32.85;;;;;;;1.62;80.49;103056.03;5031502;28;20091;-58
2022/03/21 02:44:19;;;;;;;61.08;37.10;;;;;;;1.56;80.71;103053.22;5026987;28;20021;-56
2022/03/21 02:46:46;;;;;;;61.45;35.60;;;;;;;1.49;80.83;103055.56;5038762;28;20059;-57
2022/03/21 02:49:12;;;;;;;57.95;32.97;;;;;;;1.46;80.91;103060.63;5046225;28;20356;-58
2022/03/21 02:51:39;;;;;;;64.20;37.25;;;;;;;1.42;81.29;103063.94;5019860;28;20025;-59
2022/03/21 02:54:04;;;;;;;67.78;37.85;;;;;;;1.42;81.20;103063.94;5027630;28;20021;-57
2022/03/21 02:56:30;;;;;;;60.40;34.75;;;;;;;1.36;81.32;103063.69;5025078;28;20031;-56
2022/03/21 02:58:55;;;;;;;57.88;34.83;;;;;;;1.32;81.50;103067.00;5027316;28;20176;-57
2022/03/21 03:01:21;;;;;;;62.25;36.90;;;;;;;1.28;81.78;103062.47;5025541;28;20527;-59
2022/03/21 03:03:46;;;;;;;57.95;33.95;;;;;;;1.25;81.83;103063.25;5026794;28;20038;-58
2022/03/21 03:06:12;;;;;;;62.63;36.40;;;;;;;1.24;81.83;103064.94;5025353;28;20021;-56
2022/03/21 03:08:43;;;;;;;60.28;34.92;;;;;;;1.24;81.89;103064.09;5026133;28;20025;-57
2022/03/21 03:11:09;;;;;;;53.92;32.65;;;;;;;1.26;81.87;103071.09;5036922;28;20028;-57
2022/03/21 03:13:34;;;;;;;59.55;33.72;;;;;;;1.26;81.76;103071.09;5047130;28;20398;-57
2022/03/21 03:16:00;;;;;;;65.90;37.47;;;;;;;1.30;81.93;103069.53;5035577;28;20021;-58
2022/03/21 03:18:25;;;;;;;67.88;39.33;;;;;;;1.33;82.06;103079.16;5024998;28;20033;-59
2022/03/21 03:20:53;;;;;;;61.42;37.83;;;;;;;1.34;82.29;103075.72;5025042;28;20040;-55
2022/03/21 03:23:19;;;;;;;64.18;37.30;;;;;;;1.33;82.10;103079.16;5026874;28;20083;-55
2022/03/21 03:25:46;;;;;;;65.22;38.00;;;;;;;1.34;82.27;103080.91;5025911;28;20079;-56
2022/03/21 03:28:12;;;;;;;66.70;37.83;;;;;;;1.41;82.10;103075.13;5026135;28;20029;-56
2022/03/21 03:30:39;;;;;;;67.97;37.78;;;;;;;1.49;81.83;103076.34;5025662;28;20051;-57
2022/03/21 03:33:04;;;;;;;69.53;39.22;;;;;;;1.60;81.35;103071.56;5041541;28;20020;-58
2022/03/21 03:35:30;;;;;;;68.75;39.53;;;;;;;1.69;80.67;103078.88;5027896;28;20087;-57
2022/03/21 03:37:55;;;;;;;64.68;37.20;;;;;;;1.73;80.56;103079.84;5030098;28;20064;-58
2022/03/21 03:40:21;;;;;;;68.22;39.03;;;;;;;1.74;80.30;103082.53;5025625;28;20361;-56
2022/03/21 03:42:47;;;;;;;60.97;35.97;;;;;;;1.74;80.25;103085.13;5031242;28;20044;-56
2022/03/21 03:45:13;;;;;;;68.00;38.53;;;;;;;1.71;80.25;103086.69;5044720;28;20523;-57
2022/03/21 03:47:39;;;;;;;68.82;39.15;;;;;;;1.71;80.53;103078.91;5007417;28;20032;-58
2022/03/21 03:50:05;;;;;;;63.38;38.05;;;;;;;1.73;80.41;103085.97;5027459;28;20037;-56
2022/03/21 03:52:30;;;;;;;67.28;38.65;;;;;;;1.75;80.22;103080.81;5025114;28;20029;-62
2022/03/21 03:54:56;;;;;;;65.93;37.72;;;;;;;1.70;80.33;103080.63;5033452;28;20029;-56
2022/03/21 03:57:21;;;;;;;70.20;40.22;;;;;;;1.71;80.41;103078.91;5045469;28;20060;-56
2022/03/21 03:59:46;;;;;;;67.50;39.20;;;;;;;1.73;80.01;103083.34;5037137;28;20115;-56
2022/03/21 04:02:12;;;;;;;70.80;42.65;;;;;;;1.72;80.07;103081.56;5025603;28;20064;-57
2022/03/21 04:04:37;;;;;;;69.32;41.83;;;;;;;1.71;80.02;103086.69;5024939;28;20502;-55
2022/03/21 04:07:02;;;;;;;67.65;41.00;;;;;;;1.72;79.88;103084.16;5026142;28;20045;-58
2022/03/21 04:09:28;;;;;;;56.22;35.28;;;;;;;1.69;79.59;103081.47;5025116;28;20026;-58
2022/03/21 04:11:53;;;;;;;66.90;38.85;;;;;;;1.67;79.73;103082.22;5024990;28;20045;-56
2022/03/21 04:14:18;;;;;;;68.18;39.03;;;;;;;1.63;79.96;103095.09;5023850;28;20124;-56
2022/03/21 04:16:44;;;;;;;65.95;38.53;;;;;;;1.57;80.02;103087.06;5038506;28;20029;-58
2022/03/21 04:19:13;;;;;;;74.68;43.40;;;;;;;1.59;80.47;103088.00;5044909;28;20120;-57
2022/03/21 04:21:39;;;;;;;75.82;42.22;;;;;;;1.60;80.44;103086.28;5044071;28;20033;-55
2022/03/21 04:24:04;;;;;;;71.07;40.28;;;;;;;1.61;80.00;103090.66;5045930;28;20602;-56
2022/03/21 04:26:29;;;;;;;68.22;41.55;;;;;;;1.61;80.20;103088.06;5036073;28;20029;-54
2022/03/21 04:28:55;;;;;;;68.15;41.67;;;;;;;1.59;80.00;103089.69;5025157;28;20044;-56
2022/03/21 04:31:21;;;;;;;79.35;44.13;;;;;;;1.58;80.02;103093.13;5024626;28;20045;-58
2022/03/21 04:33:46;;;;;;;66.43;40.85;;;;;;;1.51;79.89;103098.06;5024910;28;20795;-57
2022/03/21 04:36:13;;;;;;;65.75;39.72;;;;;;;1.49;80.22;103096.25;5028045;28;20487;-56
2022/03/21 04:38:39;;;;;;;68.68;39.95;;;;;;;1.46;80.31;103097.03;5044626;28;20029;-57
2022/03/21 04:41:04;;;;;;;73.28;42.15;;;;;;;1.47;80.39;103101.38;5042588;28;20064;-57
2022/03/21 04:43:30;;;;;;;66.65;38.03;;;;;;;1.43;80.48;103099.50;5025269;28;20215;-57
2022/03/21 04:45:55;;;;;;;71.55;42.28;;;;;;;1.41;80.57;103103.72;5026160;28;20578;-57
2022/03/21 04:48:21;;;;;;;83.00;47.80;;;;;;;1.42;80.80;103104.63;5028351;28;20514;-56
2022/03/21 04:50:46;;;;;;;71.15;40.80;;;;;;;1.41;80.86;103102.84;5028850;28;20107;-56
2022/03/21 04:53:11;;;;;;;77.68;44.13;;;;;;;1.39;81.05;103110.59;5027997;28;20068;-58
2022/03/21 04:55:39;;;;;;;73.13;42.80;;;;;;;1.42;81.09;103113.31;5028814;28;20021;-57
2022/03/21 04:58:05;;;;;;;71.53;43.13;;;;;;;1.47;81.12;103105.69;5043294;28;20447;-60
2022/03/21 05:00:30;;;;;;;73.60;42.58;;;;;;;1.47;80.71;103108.28;5048864;28;20155;-57
2022/03/21 05:02:55;;;;;;;68.60;41.10;;;;;;;1.43;80.96;103107.28;5033854;28;20404;-57
2022/03/21 05:05:21;;;;;;;71.05;41.25;;;;;;;1.44;80.90;103110.78;5028674;28;20025;-55
2022/03/21 05:07:46;;;;;;;68.35;40.88;;;;;;;1.35;81.08;103108.66;5026245;28;20033;-54
2022/03/21 05:10:14;;;;;;;85.07;44.63;;;;;;;1.39;81.35;103102.78;5028820;28;20028;-58
2022/03/21 05:12:39;;;;;;;72.65;43.40;;;;;;;1.38;81.47;103103.59;5032697;28;20483;-60
2022/03/21 05:15:06;;;;;;;82.10;44.97;;;;;;;1.44;81.55;103110.78;5032388;28;20091;-57
2022/03/21 05:17:33;;;;;;;79.22;45.17;;;;;;;1.51;81.58;103105.00;5029031;28;20309;-56
2022/03/21 05:19:59;;;;;;;70.40;41.95;;;;;;;1.55;81.32;103101.69;5028534;28;20033;-57
2022/03/21 05:22:24;;;;;;;73.70;41.97;;;;;;;1.63;81.36;103099.41;5029222;28;20026;-55
2022/03/21 05:30:57;;;;;;;65.63;40.53;;;;;;;1.74;81.17;103107.63;5035341;28;20589;-57
2022/03/21 05:36:00;;;;;;;71.25;41.03;;;;;;;1.73;81.57;103117.16;5024479;28;20039;-57
2022/03/21 05:38:27;;;;;;;73.50;40.55;;;;;;;1.80;81.74;103117.41;5036486;28;20123;-56
2022/03/21 05:40:58;;;;;;;71.50;39.53;;;;;;;1.79;81.66;103111.31;5016210;28;20384;-57
2022/03/21 05:43:24;;;;;;;71.07;41.92;;;;;;;1.83;81.65;103110.59;5034321;28;20044;-59
2022/03/21 05:45:51;;;;;;;64.50;40.28;;;;;;;1.85;81.66;103126.25;5028981;28;20087;-56
2022/03/21 05:51:01;;;;;;;71.97;42.58;;;;;;;1.85;82.01;103129.75;5028356;28;20064;-55
2022/03/21 05:53:26;;;;;;;69.28;39.83;;;;;;;1.89;81.72;103125.53;5027240;28;20115;-57
2022/03/21 05:55:52;;;;;;;63.15;38.33;;;;;;;1.81;81.79;103135.66;5027597;28;20041;-57
2022/03/21 05:58:17;;;;;;;60.10;34.63;;;;;;;1.75;81.93;103130.22;5026299;28;20036;-58
2022/03/21 06:00:42;;;;;;;64.60;37.10;;;;;;;1.74;82.10;103134.50;5027074;28;20041;-57
2022/03/21 06:03:09;;;;;;;64.25;37.53;;;;;;;1.74;82.26;103138.81;5026892;28;20022;-58
2022/03/21 06:05:37;;;;;;;68.15;38.83;;;;;;;1.73;82.35;103143.16;5026853;28;20319;-58
2022/03/21 06:08:02;;;;;;;71.03;39.83;;;;;;;1.79;82.39;103141.59;5013637;28;20026;-59
2022/03/21 06:10:29;;;;;;;76.47;41.38;;;;;;;1.80;82.38;103143.41;5014949;28;20049;-54
2022/03/21 06:12:55;;;;;;;60.38;35.25;;;;;;;1.75;82.28;103141.47;5017608;28;20025;-59
2022/03/21 06:15:21;;;;;;;70.22;41.30;;;;;;;1.81;82.31;103152.97;5021334;28;20026;-58
2022/03/21 06:17:46;;;;;;;71.07;40.83;;;;;;;1.84;82.22;103155.69;5026605;28;20040;-59
2022/03/21 06:20:16;;;;;;;68.85;38.90;;;;;;;1.79;82.37;103150.28;5027919;28;20021;-57
2022/03/21 06:22:42;;;;;;;69.28;39.38;;;;;;;1.80;82.18;103159.00;5026118;28;20107;-58
2022/03/21 06:25:09;;;;;;;72.85;41.72;;;;;;;1.81;82.42;103163.34;5027498;28;20018;-61
2022/03/21 06:27:35;;;;;;;71.60;40.13;;;;;;;1.80;82.65;103167.66;5035816;28;20022;-60
2022/03/21 06:30:02;;;;;;;68.85;38.13;;;;;;;1.81;82.79;103160.75;5015658;28;20036;-56
2022/03/21 06:32:27;;;;;;;69.53;40.53;;;;;;;1.84;82.89;103171.28;5016911;28;20051;-57
2022/03/21 06:34:53;;;;;;;72.70;41.53;;;;;;;1.90;82.92;103168.94;5017425;28;20480;-57
2022/03/21 06:37:19;;;;;;;72.25;42.67;;;;;;;2.02;83.00;103174.59;5016497;28;20544;-57
2022/03/21 06:39:45;;;;;;;81.57;43.53;;;;;;;2.13;83.02;103174.13;5016327;28;20025;-57
2022/03/21 06:42:11;;;;;;;73.18;42.47;;;;;;;2.27;82.69;103172.97;5017358;28;20357;-56
2022/03/21 06:44:37;;;;;;;79.55;44.38;;;;;;;2.41;82.42;103175.22;5017301;28;20034;-62
2022/03/21 06:47:03;;;;;;;80.10;45.63;;;;;;;2.58;81.91;103177.56;5016217;28;20450;-58
2022/03/21 06:49:30;;;;;;;78.20;44.13;;;;;;;2.67;81.65;103183.09;5015839;28;20124;-58
2022/03/21 06:51:59;;;;;;;76.80;46.38;;;;;;;2.78;80.78;103181.81;5018147;28;20529;-58
2022/03/21 06:54:24;;;;;;;65.50;41.03;;;;;;;2.88;80.45;103183.00;5017606;28;20539;-56
2022/03/21 06:56:49;;;;;;;78.00;43.50;;;;;;;2.97;80.08;103178.97;5014254;28;20271;-56
2022/03/21 06:59:15;;;;;;;72.32;43.55;;;;;;;3.01;79.91;103186.94;5019237;28;20034;-50
2022/03/21 07:01:40;;;;;;;68.00;41.65;;;;;;;3.09;79.98;103183.72;5026259;28;20034;-59
2022/03/21 07:04:05;;;;;;;66.97;40.58;;;;;;;3.22;79.02;103190.25;5027410;28;20108;-58
2022/03/21 07:06:31;;;;;;;71.32;42.50;;;;;;;3.32;78.47;103186.25;5025389;28;20022;-56
2022/03/21 07:08:56;;;;;;;62.83;39.00;;;;;;;3.38;78.39;103194.28;5015045;28;20472;-56
2022/03/21 07:11:22;;;;;;;79.57;45.80;;;;;;;3.42;78.25;103190.94;5032173;28;20029;-57
2022/03/21 07:13:47;;;;;;;62.28;39.65;;;;;;;3.51;78.19;103201.69;5014509;28;20332;-57
2022/03/21 07:16:16;;;;;;;68.32;41.15;;;;;;;3.58;77.72;103201.91;5017546;28;20148;-56
2022/03/21 07:18:44;;;;;;;66.07;39.65;;;;;;;3.63;77.58;103205.53;5013827;28;20026;-59
2022/03/21 07:21:11;;;;;;;67.65;39.97;;;;;;;3.72;77.40;103203.25;5014669;28;20030;-60
2022/03/21 07:23:37;;;;;;;69.18;41.42;;;;;;;3.75;76.87;103205.06;5015148;28;20503;-55
2022/03/21 07:26:02;;;;;;;73.60;41.88;;;;;;;3.85;76.04;103212.34;5031100;28;20353;-55
2022/03/21 07:28:28;;;;;;;67.03;37.92;;;;;;;3.91;75.98;103214.25;5045662;28;20048;-58
2022/03/21 07:30:54;;;;;;;68.53;39.90;;;;;;;3.96;75.84;103214.41;5034954;28;20017;-56
2022/03/21 07:33:19;;;;;;;64.97;36.47;;;;;;;4.05;75.81;103219.94;5024974;28;20033;-56
2022/03/21 07:35:44;;;;;;;59.13;35.15;;;;;;;4.14;75.92;103216.72;5024153;28;20480;-58
2022/03/21 07:38:10;;;;;;;62.55;39.78;;;;;;;4.24;75.47;103220.53;5025412;28;20025;-59
2022/03/21 07:40:35;;;;;;;60.60;39.17;;;;;;;4.29;74.95;103216.31;5024577;28;20320;-58
2022/03/21 07:43:01;;;;;;;72.95;43.85;;;;;;;4.30;74.32;103220.69;5022737;28;21004;-59
2022/03/21 07:48:11;;;;;;;60.45;38.40;;;;;;;4.46;73.69;103223.78;5016367;28;20048;-57
2022/03/21 07:50:37;;;;;;;64.80;38.55;;;;;;;4.47;73.81;103218.59;5023086;28;20032;-59
2022/03/21 07:53:02;;;;;;;57.25;36.45;;;;;;;4.59;73.55;103222.41;5022599;28;20369;-57
2022/03/21 07:55:31;;;;;;;51.63;34.08;;;;;;;4.69;73.16;103221.84;5025252;28;20040;-59
2022/03/21 07:57:56;;;;;;;61.90;39.70;;;;;;;4.76;72.84;103221.19;5024475;28;20837;-56
2022/03/21 08:00:23;;;;;;;58.92;38.25;;;;;;;4.76;72.72;103223.78;5005788;28;20025;-59
2022/03/21 08:02:49;;;;;;;49.38;31.70;;;;;;;4.91;72.64;103225.09;5001813;28;20053;-57
2022/03/21 08:05:15;;;;;;;60.22;35.33;;;;;;;4.99;72.54;103228.78;5005536;28;20025;-56
2022/03/21 08:07:41;;;;;;;56.75;35.33;;;;;;;5.08;71.90;103222.94;5002762;28;20017;-54
2022/03/21 08:10:07;;;;;;;63.80;38.67;;;;;;;5.20;71.41;103229.38;5006148;28;20445;-63
2022/03/21 08:12:32;;;;;;;55.90;33.65;;;;;;;5.24;71.41;103226.84;5003289;28;20614;-59
2022/03/21 08:14:59;;;;;;;66.75;37.38;;;;;;;5.35;71.39;103228.88;5015635;28;20439;-56
2022/03/21 08:17:26;;;;;;;52.83;33.72;;;;;;;5.37;71.25;103229.81;5004101;28;20499;-57
2022/03/21 08:19:51;;;;;;;59.28;36.33;;;;;;;5.35;70.65;103232.38;5002070;28;20040;-57
2022/03/21 08:22:16;;;;;;;58.17;36.33;;;;;;;5.33;70.33;103238.41;5004199;28;20018;-56
2022/03/21 08:24:42;;;;;;;61.63;35.25;;;;;;;5.32;70.75;103237.53;5004305;28;20055;-56
2022/03/21 08:27:07;;;;;;;53.10;34.95;;;;;;;5.36;70.57;103228.03;5005084;28;20018;-60
2022/03/21 08:29:33;;;;;;;57.60;35.47;;;;;;;5.45;70.46;103243.97;5000248;28;20048;-56
2022/03/21 08:31:58;;;;;;;54.92;30.38;;;;;;;5.57;70.00;103236.44;5004630;28;20017;-58
2022/03/21 08:34:23;;;;;;;52.35;32.95;;;;;;;5.57;69.92;103239.06;5002769;28;20029;-57
2022/03/21 08:36:49;;;;;;;45.83;30.60;;;;;;;5.71;70.29;103235.91;5003909;28;20356;-56
2022/03/21 08:39:14;;;;;;;52.67;32.25;;;;;;;5.86;69.94;103238.03;4986647;28;20517;-58
2022/03/21 08:41:40;;;;;;;50.03;30.70;;;;;;;5.98;69.73;103226.97;5004077;28;20116;-59
2022/03/21 08:44:05;;;;;;;51.65;30.73;;;;;;;6.04;69.71;103229.78;5002062;28;20061;-55
2022/03/21 08:46:31;;;;;;;50.33;31.27;;;;;;;6.18;68.86;103239.69;4983269;28;20517;-57
2022/03/21 08:51:43;;;;;;;44.75;28.65;;;;;;;6.39;68.55;103233.16;4988399;28;20067;-58
2022/03/21 08:54:08;;;;;;;43.88;27.52;;;;;;;6.53;68.31;103229.09;4988053;28;20034;-57
2022/03/21 08:56:34;;;;;;;43.90;26.75;;;;;;;6.60;67.71;103224.91;4985660;28;20377;-57
2022/03/21 08:58:59;;;;;;;36.67;23.25;;;;;;;6.78;67.20;103229.66;5006820;28;20037;-57
2022/03/21 09:01:25;;;;;;;41.75;26.33;;;;;;;6.96;67.09;103236.09;4995177;28;20152;-57
2022/03/21 09:03:51;;;;;;;42.83;25.77;;;;;;;7.01;65.74;103237.06;4993425;28;20025;-57
2022/03/21 09:06:17;;;;;;;39.92;25.17;;;;;;;7.11;66.28;103232.91;4994613;28;20200;-59
2022/03/21 09:08:43;;;;;;;40.33;25.55;;;;;;;7.27;65.88;103231.44;4998178;28;20037;-56
2022/03/21 09:11:08;;;;;;;45.53;24.92;;;;;;;7.37;65.11;103239.50;4990685;28;20451;-55
2022/03/21 09:13:34;;;;;;;34.97;22.00;;;;;;;7.52;64.09;103231.88;4995468;28;20049;-56
2022/03/21 09:15:59;;;;;;;37.17;22.83;;;;;;;7.59;63.46;103230.25;4993133;28;20018;-55
2022/03/21 09:18:25;;;;;;;44.10;24.73;;;;;;;7.65;63.26;103230.34;4993624;28;20056;-55
2022/03/21 09:20:50;;;;;;;35.00;21.17;;;;;;;7.82;63.25;103229.75;4993290;28;20101;-57
2022/03/21 09:23:16;;;;;;;37.38;21.13;;;;;;;7.93;62.15;103233.44;4992174;28;20365;-56
2022/03/21 09:25:41;;;;;;;41.30;23.65;;;;;;;8.04;62.27;103230.97;4989678;28;20030;-58
2022/03/21 09:28:06;;;;;;;29.83;19.45;;;;;;;8.23;62.10;103228.63;5002640;28;20029;-59
2022/03/21 09:30:33;;;;;;;40.92;23.85;;;;;;;8.38;61.65;103224.44;4995960;28;20026;-58
2022/03/21 09:32:58;;;;;;;39.80;22.33;;;;;;;8.50;62.33;103231.59;5003273;28;20025;-57
2022/03/21 09:35:24;;;;;;;37.50;23.45;;;;;;;8.49;61.36;103225.47;4995882;28;20109;-56
2022/03/21 09:37:49;;;;;;;36.97;21.73;;;;;;;8.58;61.39;103225.63;4998949;28;20117;-56
2022/03/21 09:40:17;;;;;;;40.50;22.88;;;;;;;8.77;61.70;103225.88;4996868;28;20490;-58
2022/03/21 09:42:44;;;;;;;37.00;20.80;;;;;;;8.97;60.77;103225.19;5007231;28;20171;-55
2022/03/21 09:45:11;;;;;;;27.73;18.52;;;;;;;9.06;59.60;103222.69;5006911;28;20032;-53
2022/03/21 09:50:22;;;;;;;31.45;19.77;;;;;;;9.09;57.95;103217.47;5006919;28;20094;-56
2022/03/21 09:52:47;;;;;;;33.83;21.25;;;;;;;9.29;58.12;103219.41;4970797;28;20077;-56
2022/03/21 09:55:13;;;;;;;33.47;20.10;;;;;;;9.47;58.71;103217.81;4981171;28;20104;-54
2022/03/21 09:57:39;;;;;;;31.38;19.73;;;;;;;9.59;57.78;103217.94;5006305;28;20471;-56
2022/03/21 10:00:05;;;;;;;41.63;20.08;;;;;;;9.67;57.65;103212.75;5007745;28;20037;-48
2022/03/21 10:02:31;;;;;;;35.90;21.52;;;;;;;9.82;58.15;103219.00;5005281;28;20045;-54
2022/03/21 10:04:56;;;;;;;35.28;23.00;;;;;;;9.97;58.43;103219.09;5004054;28;20095;-57
2022/03/21 10:07:25;;;;;;;33.65;20.58;;;;;;;10.11;57.72;103215.66;4998707;28;20072;-55
2022/03/21 10:10:07;;;;;;;;;;;;;;;10.27;57.54;103214.03;4990983;28;20014;-49
2022/03/21 10:12:33;;;;;;;33.13;20.10;;;;;;;10.31;57.48;103210.53;5004874;28;19920;-53
2022/03/21 10:14:59;;;;;;;32.60;19.10;;;;;;;10.42;56.51;103204.44;5003389;28;20018;-56
2022/03/21 10:17:24;;;;;;;29.70;19.27;;;;;;;10.43;56.78;103207.06;4991742;28;20935;-55
2022/03/21 10:19:52;;;;;;;31.45;18.90;;;;;;;10.67;56.33;103212.47;4995931;28;20029;-55
2022/03/21 10:22:33;;;;;;;28.77;19.02;;;;;;;10.70;55.31;103208.09;4998639;28;20022;-56
2022/03/21 10:25:06;;;;;;;33.85;17.65;;;;;;;10.89;54.81;103210.78;5004389;28;20029;-56
2022/03/21 10:27:39;;;;;;;28.52;17.80;;;;;;;11.00;54.30;103213.47;4997302;28;20030;-61
2022/03/21 10:30:15;;;;;;;29.50;16.10;;;;;;;11.15;53.68;103215.25;5004407;28;20033;-55
2022/03/21 10:32:43;;;;;;;24.52;14.63;;;;;;;11.28;50.43;103216.13;4996677;28;20112;-58
2022/03/21 10:35:14;;;;;;;29.17;14.70;;;;;;;11.43;50.77;103217.91;4997607;28;20644;-56
2022/03/21 10:37:41;;;;;;;25.70;16.23;;;;;;;11.44;49.08;103211.75;4994654;28;20511;-57
2022/03/21 10:40:16;;;;;;;26.02;16.25;;;;;;;11.58;49.40;103211.75;4991300;28;20373;-55
2022/03/21 10:42:56;;;;;;;22.85;15.20;;;;;;;11.67;46.57;103207.34;4992946;28;20034;-56
2022/03/21 10:45:46;;;;;;;21.50;13.65;;;;;;;11.83;45.44;103208.25;4998353;28;20538;-55
2022/03/21 10:48:19;;;;;;;19.52;13.05;;;;;;;12.09;43.84;103205.56;4976616;28;20107;-56
2022/03/21 10:50:49;;;;;;;19.58;13.13;;;;;;;11.98;44.40;103200.28;5004230;28;20463;-58
2022/03/21 10:53:17;;;;;;;21.42;12.80;;;;;;;12.19;44.37;103208.22;5001585;28;20300;-51
2022/03/21 10:55:45;;;;;;;19.85;12.00;;;;;;;12.15;42.62;103206.44;5003684;28;20108;-57
2022/03/21 10:58:11;;;;;;;19.25;12.85;;;;;;;12.22;43.06;103200.28;5004538;28;20037;-53
2022/03/21 11:00:37;;;;;;;20.00;14.05;;;;;;;12.41;44.93;103184.31;4986905;28;20265;-58
2022/03/21 11:03:12;;;;;;;20.15;13.25;;;;;;;12.46;42.73;103195.78;4994501;28;20374;-55
2022/03/21 11:05:42;;;;;;;20.42;12.75;;;;;;;12.63;42.92;103196.59;4996092;28;20037;-56
2022/03/21 11:08:11;;;;;;;17.95;12.70;;;;;;;12.79;42.47;103191.19;4998511;28;20048;-55
2022/03/21 11:10:37;;;;;;;20.87;13.63;;;;;;;13.01;43.12;103185.78;4999429;28;20065;-57
2022/03/21 11:13:04;;;;;;;19.77;12.48;;;;;;;12.95;41.31;103189.34;4995372;28;20281;-56
2022/03/21 11:15:31;;;;;;;20.08;12.82;;;;;;;13.06;41.17;103181.34;4995253;28;20033;-56
2022/03/21 11:17:57;;;;;;;22.15;13.43;;;;;;;13.17;40.99;103183.91;4993795;28;20029;-55
2022/03/21 11:20:23;;;;;;;18.30;12.25;;;;;;;13.56;41.08;103194.22;4995009;28;20026;-50
2022/03/21 11:22:48;;;;;;;21.85;12.30;;;;;;;13.63;40.04;103187.09;4993153;28;20022;-54
2022/03/21 11:25:17;;;;;;;18.90;12.43;;;;;;;13.77;39.94;103184.31;4992745;28;20087;-55
2022/03/21 11:28:10;;;;;;;21.13;12.18;;;;;;;13.84;40.08;103180.72;4998606;28;20079;-55
2022/03/21 11:31:00;;;;;;;18.63;11.68;;;;;;;14.03;39.61;103183.19;5004400;28;20565;-60
2022/03/21 11:33:42;;;;;;;17.80;11.18;;;;;;;14.04;39.16;103182.28;5003810;28;20064;-57
2022/03/21 11:36:10;;;;;;;17.83;11.73;;;;;;;14.32;39.46;103176.66;4985411;28;20032;-57